Home > Products > Valid Products > TAF

000
FTUS44 KEPZ 290400 AAA
TAFELP
TAF AMD
KELP 290400Z 2904/2924 12012KT P6SM VCTS SCT080CB BKN250
     FM290700 VRB04KT P6SM SCT120 SCT250
     FM292000 21007KT P6SM VCTS SCT080CB SCT250=



000
FTUS44 KEPZ 282300
TAFDMN
TAF
KDMN 282333Z 2900/2924 VRB04KT P6SM VCTS BKN080CB BKN250
      TEMPO 2900/2903 VRB25G35KT 3SM TSRA SCT050 BKN070CB OVC090
     FM290300 VRB06KT P6SM FEW080 SCT120 BKN250
     FM292100 23007KT P6SM VCTS SCT080CB SCT120=



000
FTUS44 KEPZ 282300
TAFTCS
TAF
KTCS 282333Z 2900/2924 20011KT P6SM VCTS SCT070CB BKN120 BKN250
      TEMPO 2900/2904 VRB25G35KT TSRA BKN060CB OVC120
     FM290400 VRB05KT P6SM SCT120 BKN250
     FM291900 21010KT P6SM SCT070
     FM292200 22011KT P6SM VCTS SCT080CB SCT250=



000
FTUS44 KEPZ 282300
TAFELP
TAF
KELP 282333Z 2900/2924 12012KT P6SM VCTS SCT070CB SCT140 BKN250
     FM290500 VRB04KT P6SM SCT120 SCT250
     FM292000 21007KT P6SM VCTS SCT080CB SCT250=



000
FTUS44 KEPZ 282300 AAA
TAFELP
TAF AMD
KELP 282300Z 2823/2918 12012KT P6SM VCTS SCT070CB SCT140 BKN250
      TEMPO 2823/2901 3SM TSRA FEW050 BKN070CB OVC100
     FM290400 VRB04KT P6SM SCT120 SCT250=



000
FTUS44 KEPZ 281800 RRA
TAFDMN
TAF
KDMN 281803Z 2818/2918 14008KT P6SM FEW090 BKN120 BKN250
     FM282200 21010KT P6SM VCTS BKN080CB BKN250=



000
FTUS44 KEPZ 281800 RRA
TAFELP
TAF
KELP 281803Z 2818/2918 02011KT P6SM VCSH FEW090 SCT120 BKN250
     FM282200 14007KT P6SM VCTS SCT080CB SCT250
     FM290400 VRB04KT P6SM SCT120 SCT250=



000
FTUS44 KEPZ 281800 RRA
TAFTCS
TAF
KTCS 281803Z 2818/2918 14006KT P6SM VCSH SCT090 BKN250
     FM282100 20009KT P6SM VCTS SCT080CB BKN120 BKN250
     FM290600 VRB05KT P6SM SCT120 BKN250=



000
FTUS44 KEPZ 281100
TAFELP
TAF
KELP 281121Z 2812/2912 34011KT P6SM SCT100 BKN250
     FM282000 12009KT P6SM VCTS SCT080CB SCT250
     FM290400 VRB04KT P6SM SCT120 SCT250=



000
FTUS44 KEPZ 281100
TAFDMN
TAF
KDMN 281121Z 2812/2912 VRB06KT P6SM VCTS FEW050CB OVC100
     FM282000 16012KT P6SM VCTS BKN080CB BKN250=



000
FTUS44 KEPZ 281100
TAFTCS
TAF
KTCS 281121Z 2812/2912 35007KT P6SM BKN100
     FM281500 33010KT P6SM VCTS BKN090CB
     FM290600 17007KT P6SM SCT120 BKN250=



000
FTUS44 KEPZ 280500
TAFDMN
TAF
KDMN 280526Z 2806/2906 27011KT P6SM VCTS SCT100CB BKN250
     FM281100 VRB06KT P6SM FEW120 SCT150
     FM282000 16012KT P6SM VCTS BKN080CB BKN250
     FM290400 VRB06KT P6SM SCT100 BKN250=



000
FTUS44 KEPZ 280500
TAFELP
TAF
KELP 280526Z 2806/2906 29009KT P6SM VCTS SCT100CB BKN250
     FM281100 03008KT P6SM SCT100 BKN250
     FM282000 12009KT P6SM VCTS SCT080CB SCT250
     FM290400 VRB04KT P6SM SCT120 SCT250=



000
FTUS44 KEPZ 280500
TAFTCS
TAF
KTCS 280526Z 2806/2906 25008KT P6SM VCTS SCT080CB BKN250
     FM281200 04007KT P6SM SCT120 SCT250
     FM281900 14007KT P6SM VCTS SCT080CB SCT250
     FM290300 17007KT P6SM SCT120 BKN250=



000
FTUS44 KEPZ 280400 AAB
TAFDMN
TAF AMD
KDMN 280422Z 2804/2824 27011KT P6SM VCTS SCT100CB BKN250
     FM281100 VRB06KT P6SM FEW120 SCT150
     FM281900 15007KT P6SM VCTS BKN090CB BKN250=



000
FTUS44 KEPZ 280200 AAA
TAFELP
TAF AMD
KELP 280244Z 2803/2824 15007KT P6SM VCTS SCT100CB BKN250
      TEMPO 2803/2805 -TSRA BKN080CB BKN140
     FM281300 03008KT P6SM SCT100 BKN250
     FM282000 12009KT P6SM VCTS SCT080CB SCT250=



000
FTUS44 KEPZ 280100 AAA
TAFDMN
TAF AMD
KDMN 280134Z 2802/2824 22020G35KT 5SM BLDU SCT100 BKN250
      TEMPO 2801/2803 2SM BLDU BKN030 BKN100 BKN250
     FM280300 26012KT P6SM SCT100 BKN250
     FM281900 15007KT P6SM VCTS BKN090CB BKN250=



000
FTUS44 KEPZ 272300
TAFELP
TAF
KELP 272338Z 2800/2824 16007KT P6SM SCT100 SCT140 OVC250
     FM280700 12007KT P6SM VCTS SCT080CB BKN140 BKN250
     FM281300 03008KT P6SM SCT100 BKN250
     FM282000 12009KT P6SM VCTS SCT080CB SCT250=



000
FTUS44 KEPZ 272300
TAFTCS
TAF
KTCS 272338Z 2800/2824 15014G24KT P6SM FEW100 FEW250
     FM280500 17008KT P6SM VCTS SCT080CB BKN250
     FM281200 04007KT P6SM SCT120 SCT250
     FM281900 14008KT P6SM VCTS SCT080CB SCT250=



000
FTUS44 KEPZ 272300
TAFDMN
TAF
KDMN 272338Z 2800/2824 12012KT P6SM FEW100 BKN250
     FM281900 15007KT P6SM VCTS BKN090CB BKN250=



000
FTUS44 KEPZ 272300 AAA
TAFELP
TAF AMD
KELP 272331Z 2800/2818 16007KT P6SM SCT100 SCT140 OVC250
     FM280700 12007KT P6SM VCTS SCT080CB BKN140 BKN250
     FM281300 03008KT P6SM SCT100 BKN250=



000
FTUS44 KEPZ 272000 AAB
TAFELP
TAF AMD
KELP 272057Z 2721/2818 12010G18KT P6SM VCTS SCT100CB BKN250
      TEMPO 2721/2801 VRB25G40KT 1SM TSRA SCT030 BKN060CB
     FM280400 10008KT P6SM BKN100 BKN250=



000
FTUS44 KEPZ 272000 AAA
TAFELP
TAF AMD
KELP 272031Z 2721/2818 13010G18KT P6SM VCTS FEW100CB SCT250
     FM272200 16008KT P6SM VCTS SCT100CB BKN250
     FM280400 10008KT P6SM BKN100 BKN250=



000
FTUS44 KEPZ 271700 RRA
TAFTCS
TAF
KTCS 271757Z 2718/2818 05012G22KT P6SM FEW100
     FM272100 16010KT P6SM FEW100 SCT250
     FM280300 18008KT P6SM VCTS SCT090CB BKN250
     FM280600 18005KT P6SM VCTS FEW050 BKN090CB BKN250=



000
FTUS44 KEPZ 271700 RRA
TAFELP
TAF
KELP 271757Z 2718/2818 14006KT P6SM SKC
     FM272000 16010G18KT P6SM FEW120
     FM280000 16008KT P6SM VCTS SCT100CB SCT250
     FM280400 10008KT P6SM BKN100 BKN250=



000
FTUS44 KEPZ 271700 RRA
TAFDMN
TAF
KDMN 271757Z 2718/2818 05011G22KT P6SM FEW100
     FM272100 14010G18KT P6SM FEW100 SCT250
     FM280200 20008KT P6SM VCTS SCT090CB SCT250
     FM280600 24006KT P6SM VCSH BKN090 BKN250=



000
FTUS44 KEPZ 271100
TAFELP
TAF
KELP 271128Z 2712/2812 16004KT P6SM FEW120
     FM272000 13008KT P6SM SCT100
     FM272300 09011G18KT P6SM VCTS SCT100CB SCT250
     FM280600 07008KT P6SM BKN100 BKN250=



000
FTUS44 KEPZ 271100
TAFDMN
TAF
KDMN 271128Z 2712/2812 22006KT P6SM FEW110
     FM271900 13007G15KT P6SM FEW100
     FM272300 22011G18KT P6SM VCTS SCT090CB SCT250
     FM280600 24006KT P6SM VCSH BKN090 BKN250=



000
FTUS44 KEPZ 271100
TAFTCS
TAF
KTCS 271128Z 2712/2812 04010KT P6SM SCT120
     FM272100 14009G16KT P6SM FEW100
     FM280600 35010KT P6SM SCT090 BKN250=



000
FTUS44 KEPZ 270500
TAFELP
TAF
KELP 270520Z 2706/2806 12005KT P6SM FEW100
     FM271000 VRB04KT P6SM SKC
     FM272000 12011KT P6SM SCT100
     FM272300 12010KT P6SM VCTS SCT100CB SCT250=



000
FTUS44 KEPZ 270500
TAFTCS
TAF
KTCS 270520Z 2706/2806 15007KT P6SM VCTS SCT100CB SCT200
     FM270900 31005KT P6SM FEW120 FEW250
     FM272100 15009KT P6SM SCT110=



000
FTUS44 KEPZ 270500
TAFDMN
TAF
KDMN 270520Z 2706/2806 VRB06KT P6SM SKC
     FM271900 15007KT P6SM FEW100
     FM272300 12008KT P6SM VCTS SCT100CB SCT250
     FM280400 20010KT P6SM SCT120 SCT250=



000
FTUS44 KEPZ 270400 AAA
TAFTCS
TAF AMD
KTCS 270412Z 2704/2724 VRB03KT P6SM VCTS SCT090CB SCT200
     FM270900 31005KT P6SM FEW120 FEW250
     FM272100 15009KT P6SM SCT110=



000
FTUS44 KEPZ 262300
TAFTCS
TAF
KTCS 262329Z 2700/2724 VRB03KT P6SM FEW140
     FM270900 32006KT P6SM FEW250
     FM272100 16009KT P6SM SCT110=



000
FTUS44 KEPZ 262300
TAFDMN
TAF
KDMN 262329Z 2700/2724 12005KT P6SM FEW110
     FM270400 VRB06KT P6SM SKC
     FM271900 15007KT P6SM FEW100
     FM272200 12008KT P6SM SCT110=



000
FTUS44 KEPZ 262300
TAFELP
TAF
KELP 262329Z 2700/2724 10007KT P6SM FEW120
     FM271000 VRB04KT P6SM SKC
     FM272100 12011KT P6SM SCT100=



000
FTUS44 KEPZ 261700
TAFTCS
TAF
KTCS 261736Z 2618/2718 VRB04KT P6SM SKC
     FM262000 15005KT P6SM FEW090
     FM270600 34009KT P6SM SKC=



000
FTUS44 KEPZ 261700
TAFELP
TAF
KELP 261736Z 2618/2718 16006KT P6SM SKC
     FM271000 VRB04KT P6SM SKC=



000
FTUS44 KEPZ 261700
TAFDMN
TAF
KDMN 261736Z 2618/2718 VRB05KT P6SM SKC
     FM262000 15005KT P6SM FEW100
     FM270400 29006KT P6SM SKC=



000
FTUS44 KEPZ 261100
TAFTCS
TAF
KTCS 261127Z 2612/2712 31004KT P6SM SKC
     FM261600 03007KT P6SM FEW090
     FM270600 34009KT P6SM FEW090=



000
FTUS44 KEPZ 261100
TAFDMN
TAF
KDMN 261127Z 2612/2712 25007KT P6SM SKC
     FM261800 29008KT P6SM FEW090
     FM270000 32011G18KT P6SM VCTS SCT090CB=



000
FTUS44 KEPZ 261100
TAFELP
TAF
KELP 261127Z 2612/2712 18006KT P6SM SKC
     FM262200 10008KT P6SM FEW100=



000
FTUS44 KEPZ 260500
TAFELP
TAF
KELP 260520Z 2606/2706 16006KT P6SM SKC
     FM261800 VRB05KT P6SM FEW090=



000
FTUS44 KEPZ 260500
TAFTCS
TAF
KTCS 260520Z 2606/2706 29006KT P6SM SKC
     FM261600 02008KT P6SM SKC=



000
FTUS44 KEPZ 260500
TAFDMN
TAF
KDMN 260520Z 2606/2706 27010KT P6SM SKC
     FM261800 02005KT P6SM FEW090=



    US Dept of Commerce
    National Oceanic and Atmospheric Administration
    National Weather Service
    1325 East West Highway
    Silver Spring, MD 20910
    Page Author: NWS Internet Services Team
Disclaimer
Information Quality
Credits
Glossary
Privacy Policy
Freedom of Information Act (FOIA)
About Us
Career Opportunities